^^
Station Historical Data
Daily Summary for January 16, 2017 Units:  English    Metric   Both
« Previous Day
Next Day »
Daily Weekly Monthly Yearly Custom
  High: Low: Average:
Temperature: 39.7 °F 16.8 °F 29.1 °F
Dew Point: 27.4 °F 14.4 °F 22.1 °F
Humidity: 91 % 56 % 76 %
Wind Speed: 7.0 mph 0.0 mph 0.7 mph
Wind Gust: 10.4 mph - -
Wind:- - WSW
Pressure: 30.51 in 30.33 in -
Precipitation: 0.01 in    
Historical Graphs
 
 
Tabular Data for January 16, 2017
Time Temperature Dew Point Pressure Wind Wind Speed Wind Gust Humidity Rainfall Rate (Hourly) solar Conditions
00:03 22.1 °F 18.6 °F 30.45 in Calm     86 % 0.00 in 0.0 W/m2 RA
00:08 22.1 °F 18.6 °F 30.45 in Calm     86 % 0.00 in 0.0 W/m2 RA
00:13 22.0 °F 18.5 °F 30.45 in Calm     86 % 0.00 in 0.0 W/m2 CLR
00:18 21.9 °F 18.6 °F 30.45 in Calm     87 % 0.00 in 0.0 W/m2 CLR
00:23 21.9 °F 18.6 °F 30.45 in Calm     87 % 0.00 in 0.0 W/m2 CLR
00:28 22.0 °F 18.7 °F 30.46 in Calm     87 % 0.00 in 0.0 W/m2 CLR
00:33 21.8 °F 18.5 °F 30.46 in Calm     87 % 0.00 in 0.0 W/m2 CLR
00:38 21.8 °F 18.5 °F 30.46 in Calm     87 % 0.00 in 0.0 W/m2 CLR
00:43 21.7 °F 18.4 °F 30.46 in Calm     87 % 0.00 in 0.0 W/m2 CLR
00:48 21.6 °F 18.3 °F 30.46 in Calm     87 % 0.00 in 0.0 W/m2 CLR
00:53 21.6 °F 18.3 °F 30.46 in Calm     87 % 0.00 in 0.0 W/m2 CLR
00:58 21.7 °F 18.4 °F 30.46 in Calm     87 % 0.00 in 0.0 W/m2 CLR
01:03 21.8 °F 18.8 °F 30.46 in Calm     88 % 0.00 in 0.0 W/m2 CLR
01:08 22.0 °F 19.0 °F 30.46 in Calm     88 % 0.00 in 0.0 W/m2 CLR
01:13 22.1 °F 19.1 °F 30.46 in Calm     88 % 0.00 in 0.0 W/m2 CLR
01:18 21.5 °F 18.2 °F 30.47 in Calm   1.2 mph 87 % 0.00 in 0.0 W/m2 CLR
01:23 21.2 °F 17.9 °F 30.47 in Calm     87 % 0.00 in 0.0 W/m2 CLR
01:28 20.8 °F 17.5 °F 30.47 in Calm     87 % 0.00 in 0.0 W/m2 CLR
01:33 20.7 °F 17.7 °F 30.47 in Calm     88 % 0.00 in 0.0 W/m2 CLR
01:38 20.7 °F 17.7 °F 30.47 in Calm     88 % 0.00 in 0.0 W/m2 CLR
01:44 20.6 °F 17.6 °F 30.47 in Calm     88 % 0.00 in 0.0 W/m2 CLR
01:49 20.8 °F 17.8 °F 30.48 in Calm     88 % 0.00 in 0.0 W/m2 CLR
01:54 20.9 °F 17.9 °F 30.48 in Calm     88 % 0.00 in 0.0 W/m2 CLR
01:59 20.7 °F 17.7 °F 30.48 in Calm     88 % 0.00 in 0.0 W/m2 CLR
02:04 20.6 °F 17.6 °F 30.48 in Calm     88 % 0.00 in 0.0 W/m2 CLR
02:09 20.6 °F 17.6 °F 30.48 in Calm     88 % 0.00 in 0.0 W/m2 CLR
02:14 20.6 °F 17.6 °F 30.48 in Calm     88 % 0.00 in 0.0 W/m2 CLR
02:19 20.1 °F 17.1 °F 30.48 in Calm     88 % 0.00 in 0.0 W/m2 CLR
02:24 19.9 °F 16.9 °F 30.48 in Calm     88 % 0.00 in 0.0 W/m2 CLR
02:29 19.7 °F 16.7 °F 30.48 in Calm     88 % 0.00 in 0.0 W/m2 CLR
02:34 19.8 °F 17.1 °F 30.48 in Calm     89 % 0.00 in 0.0 W/m2 CLR
02:39 19.8 °F 17.1 °F 30.48 in Calm     89 % 0.00 in 0.0 W/m2 CLR
02:44 19.7 °F 17.0 °F 30.48 in Calm     89 % 0.00 in 0.0 W/m2 CLR
02:49 19.5 °F 16.8 °F 30.49 in Calm     89 % 0.00 in 0.0 W/m2 CLR
02:54 19.4 °F 16.7 °F 30.49 in Calm     89 % 0.00 in 0.0 W/m2 CLR
02:59 19.4 °F 16.7 °F 30.48 in Calm     89 % 0.00 in 0.0 W/m2 CLR
03:04 19.5 °F 16.8 °F 30.48 in Calm     89 % 0.00 in 0.0 W/m2 CLR
03:09 19.4 °F 16.7 °F 30.48 in Calm     89 % 0.00 in 0.0 W/m2 CLR
03:14 19.3 °F 16.6 °F 30.48 in Calm     89 % 0.00 in 0.0 W/m2 CLR
03:19 19.2 °F 16.5 °F 30.48 in Calm     89 % 0.00 in 0.0 W/m2 CLR
03:24 19.1 °F 16.4 °F 30.48 in Calm     89 % 0.00 in 0.0 W/m2 CLR
03:29 19.2 °F 16.7 °F 30.48 in Calm     90 % 0.00 in 0.0 W/m2 CLR
03:34 19.1 °F 16.4 °F 30.48 in Calm     89 % 0.00 in 0.0 W/m2 CLR
03:39 18.8 °F 16.1 °F 30.48 in Calm     89 % 0.00 in 0.0 W/m2 CLR
03:44 18.8 °F 16.4 °F 30.48 in Calm     90 % 0.00 in 0.0 W/m2 CLR
03:49 18.8 °F 16.4 °F 30.48 in Calm     90 % 0.00 in 0.0 W/m2 CLR
03:54 18.8 °F 16.4 °F 30.48 in Calm     90 % 0.00 in 0.0 W/m2 CLR
03:59 18.7 °F 16.3 °F 30.48 in Calm     90 % 0.00 in 0.0 W/m2 CLR
04:04 18.5 °F 16.1 °F 30.48 in Calm     90 % 0.00 in 0.0 W/m2 CLR
04:09 18.3 °F 15.9 °F 30.48 in Calm     90 % 0.00 in 0.0 W/m2 CLR
04:14 18.4 °F 16.0 °F 30.48 in Calm     90 % 0.00 in 0.0 W/m2 CLR
04:19 18.4 °F 16.0 °F 30.48 in Calm     90 % 0.00 in 0.0 W/m2 CLR
04:24 18.4 °F 16.0 °F 30.48 in Calm     90 % 0.00 in 0.0 W/m2 CLR
04:30 18.5 °F 16.1 °F 30.47 in Calm     90 % 0.00 in 0.0 W/m2 CLR
04:35 18.4 °F 16.0 °F 30.48 in Calm     90 % 0.00 in 0.0 W/m2 CLR
04:40 18.3 °F 15.9 °F 30.48 in Calm     90 % 0.00 in 0.0 W/m2 CLR
04:45 18.3 °F 15.9 °F 30.48 in Calm     90 % 0.00 in 0.0 W/m2 CLR
04:50 18.1 °F 15.7 °F 30.47 in Calm     90 % 0.00 in 0.0 W/m2 CLR
04:55 18.0 °F 15.6 °F 30.47 in Calm     90 % 0.00 in 0.0 W/m2 CLR
05:00 18.0 °F 15.6 °F 30.47 in Calm     90 % 0.00 in 0.0 W/m2 CLR
05:05 17.8 °F 15.4 °F 30.47 in Calm     90 % 0.00 in 0.0 W/m2 CLR
05:10 17.9 °F 15.5 °F 30.48 in Calm     90 % 0.00 in 0.0 W/m2 CLR
05:15 17.7 °F 15.3 °F 30.48 in Calm     90 % 0.00 in 0.0 W/m2 CLR
05:20 17.6 °F 15.2 °F 30.48 in Calm     90 % 0.00 in 0.0 W/m2 CLR
05:25 17.6 °F 15.2 °F 30.48 in Calm     90 % 0.00 in 0.0 W/m2 CLR
05:30 17.7 °F 15.3 °F 30.48 in Calm     90 % 0.00 in 0.0 W/m2 CLR
05:35 17.6 °F 15.2 °F 30.48 in Calm     90 % 0.00 in 0.0 W/m2 CLR
05:40 17.4 °F 15.0 °F 30.48 in Calm     90 % 0.00 in 0.0 W/m2 CLR
05:45 17.3 °F 14.9 °F 30.48 in Calm     90 % 0.00 in 0.0 W/m2 CLR
05:50 17.1 °F 14.7 °F 30.48 in Calm     90 % 0.00 in 0.0 W/m2 CLR
05:55 17.0 °F 14.6 °F 30.48 in Calm     90 % 0.00 in 0.0 W/m2 CLR
06:00 17.1 °F 14.7 °F 30.48 in Calm     90 % 0.00 in 0.0 W/m2 CLR
06:05 17.1 °F 14.7 °F 30.48 in Calm     90 % 0.00 in 0.0 W/m2 CLR
06:10 17.1 °F 14.7 °F 30.48 in Calm     90 % 0.00 in 0.0 W/m2 CLR
06:15 17.3 °F 14.9 °F 30.49 in Calm     90 % 0.00 in 0.0 W/m2 CLR
06:20 17.3 °F 14.9 °F 30.49 in Calm     90 % 0.00 in 0.0 W/m2 CLR
06:25 17.1 °F 14.7 °F 30.49 in Calm     90 % 0.00 in 0.0 W/m2 CLR
06:30 16.9 °F 14.5 °F 30.49 in Calm     90 % 0.00 in 0.0 W/m2 CLR
06:35 16.8 °F 14.4 °F 30.49 in Calm     90 % 0.00 in 0.0 W/m2 CLR
06:40 16.9 °F 14.5 °F 30.49 in Calm     90 % 0.00 in 0.0 W/m2 CLR
06:45 17.0 °F 14.6 °F 30.49 in Calm     90 % 0.00 in 0.0 W/m2 CLR
06:50 17.0 °F 14.6 °F 30.49 in Calm     90 % 0.00 in 0.0 W/m2 CLR
06:55 17.2 °F 14.8 °F 30.49 in Calm     90 % 0.00 in 0.0 W/m2 CLR
07:00 17.2 °F 14.8 °F 30.49 in Calm     90 % 0.00 in 0.0 W/m2 OVC
07:05 17.2 °F 14.8 °F 30.49 in Calm     90 % 0.00 in 0.0 W/m2 OVC
07:10 17.2 °F 14.8 °F 30.49 in Calm     90 % 0.00 in 0.0 W/m2 OVC
07:15 17.1 °F 14.7 °F 30.49 in Calm     90 % 0.00 in 0.0 W/m2 OVC
07:20 17.1 °F 14.7 °F 30.49 in Calm     90 % 0.00 in 0.0 W/m2 OVC
07:25 16.9 °F 14.5 °F 30.49 in Calm     90 % 0.00 in 5.0 W/m2 OVC
07:30 16.9 °F 14.5 °F 30.50 in Calm     90 % 0.00 in 7.0 W/m2 OVC
07:35 16.9 °F 14.5 °F 30.50 in Calm     90 % 0.00 in 11.0 W/m2 OVC
07:40 16.9 °F 14.5 °F 30.50 in Calm     90 % 0.00 in 14.0 W/m2 OVC
07:46 17.0 °F 14.6 °F 30.50 in Calm     90 % 0.00 in 19.0 W/m2 CLR
07:51 17.1 °F 14.7 °F 30.50 in Calm     90 % 0.00 in 23.0 W/m2 CLR
07:56 17.6 °F 15.4 °F 30.49 in Calm     91 % 0.00 in 26.0 W/m2 CLR
08:01 18.1 °F 15.7 °F 30.50 in Calm     90 % 0.00 in 30.0 W/m2 CLR
08:06 18.1 °F 15.7 °F 30.50 in Calm     90 % 0.00 in 37.0 W/m2 CLR
08:11 18.3 °F 15.9 °F 30.50 in Calm     90 % 0.00 in 42.0 W/m2 FEW
08:16 18.6 °F 16.2 °F 30.50 in Calm     90 % 0.00 in 39.0 W/m2 SCT
08:21 18.9 °F 16.5 °F 30.50 in Calm     90 % 0.00 in 51.0 W/m2 FEW
08:22 19.0 °F 16.6 °F 30.50 in Calm     90 % 0.00 in 47.0 W/m2 FEW
08:27 19.4 °F 16.9 °F 30.50 in Calm     90 % 0.00 in 53.0 W/m2 SCT
08:32 19.9 °F 17.4 °F 30.50 in Calm     90 % 0.00 in 62.0 W/m2 FEW
08:37 20.1 °F 17.6 °F 30.50 in Calm     90 % 0.00 in 72.0 W/m2 SCT
08:42 20.4 °F 17.9 °F 30.50 in Calm     90 % 0.00 in 58.0 W/m2 SCT
08:47 20.8 °F 18.3 °F 30.50 in Calm     90 % 0.00 in 65.0 W/m2 FEW
08:52 21.6 °F 19.1 °F 30.50 in Calm     90 % 0.00 in 84.0 W/m2 SCT
08:57 22.2 °F 19.5 °F 30.50 in Calm     89 % 0.00 in 98.0 W/m2 SCT
09:02 22.5 °F 19.7 °F 30.50 in Calm     89 % 0.00 in 153.0 W/m2 CLR
09:07 22.6 °F 19.6 °F 30.50 in Calm     88 % 0.00 in 190.0 W/m2 CLR
09:12 23.0 °F 20.0 °F 30.50 in Calm     88 % 0.00 in 137.0 W/m2 FEW
09:17 23.3 °F 20.0 °F 30.50 in Calm     87 % 0.00 in 199.0 W/m2 CLR
09:22 23.6 °F 20.3 °F 30.50 in Calm     87 % 0.00 in 109.0 W/m2 SCT
09:27 24.0 °F 20.4 °F 30.51 in Calm     86 % 0.00 in 123.0 W/m2 SCT
09:32 24.4 °F 20.8 °F 30.51 in Calm     86 % 0.00 in 183.0 W/m2 FEW
09:37 24.9 °F 21.0 °F 30.51 in Calm     85 % 0.00 in 207.0 W/m2 CLR
09:42 25.3 °F 21.4 °F 30.51 in Calm     85 % 0.00 in 258.0 W/m2 CLR
09:47 25.9 °F 21.7 °F 30.51 in Calm     84 % 0.00 in 229.0 W/m2 CLR
09:52 26.1 °F 21.6 °F 30.51 in Calm     83 % 0.00 in 295.0 W/m2 CLR
09:57 26.4 °F 21.9 °F 30.51 in Calm     83 % 0.00 in 281.0 W/m2 CLR
10:02 26.8 °F 22.0 °F 30.51 in Calm     82 % 0.00 in 272.0 W/m2 FEW
10:07 27.2 °F 22.1 °F 30.51 in Calm     81 % 0.00 in 218.0 W/m2 FEW
10:12 27.5 °F 22.4 °F 30.51 in Calm     81 % 0.00 in 221.0 W/m2 SCT
10:17 27.7 °F 22.3 °F 30.50 in Calm     80 % 0.00 in 325.0 W/m2 FEW
10:22 28.3 °F 22.9 °F 30.50 in Calm     80 % 0.00 in 348.0 W/m2 CLR
10:27 28.7 °F 23.0 °F 30.50 in Calm   2.3 mph 79 % 0.00 in 214.0 W/m2 SCT
10:32 29.1 °F 23.1 °F 30.50 in NW 0.4 mph 1.2 mph 78 % 0.00 in 302.0 W/m2 CLR
10:37 29.4 °F 23.4 °F 30.50 in NW 1.0 mph 2.3 mph 78 % 0.00 in 220.0 W/m2 FEW
10:42 29.7 °F 23.4 °F 30.50 in Calm     77 % 0.00 in 179.0 W/m2 FEW
10:47 30.1 °F 23.4 °F 30.50 in WNW 1.3 mph 3.0 mph 76 % 0.00 in 244.0 W/m2 SCT
10:52 30.5 °F 23.8 °F 30.50 in SW 0.3 mph 1.2 mph 76 % 0.00 in 308.0 W/m2 FEW
10:57 31.0 °F 24.0 °F 30.49 in SW 0.3 mph 3.0 mph 75 % 0.00 in 295.0 W/m2 CLR
11:02 31.6 °F 24.3 °F 30.49 in SW 3.3 mph 4.6 mph 74 % 0.00 in 271.0 W/m2 FEW
11:11 32.1 °F 24.1 °F 30.49 in WSW 2.6 mph 3.5 mph 72 % 0.00 in 318.0 W/m2 CLR
11:18 32.9 °F 24.9 °F 30.48 in Calm     72 % 0.00 in 336.0 W/m2 CLR
11:19 33.1 °F 24.7 °F 30.48 in WSW 0.2 mph 1.2 mph 71 % 0.00 in 362.0 W/m2 CLR
11:24 33.2 °F 24.5 °F 30.48 in SW 3.5 mph 4.6 mph 70 % 0.00 in 422.0 W/m2 CLR
11:25 33.3 °F 24.6 °F 30.48 in SW 1.3 mph 4.0 mph 70 % 0.00 in 399.0 W/m2 CLR
11:30 33.8 °F 24.7 °F 30.48 in SW 3.3 mph 4.0 mph 69 % 0.00 in 476.0 W/m2 CLR
11:33 33.9 °F 24.8 °F 30.48 in WSW 2.4 mph 3.5 mph 69 % 0.00 in 513.0 W/m2 CLR
11:36 34.1 °F 25.0 °F 30.48 in WSW 0.2 mph 2.0 mph 69 % 0.00 in 492.0 W/m2 CLR
11:49 34.8 °F 24.2 °F 30.46 in WNW 2.1 mph 3.5 mph 65 % 0.00 in 478.0 W/m2 CLR
11:52 35.7 °F 25.1 °F 30.46 in WNW 4.0 mph 8.0 mph 65 % 0.00 in 417.0 W/m2 CLR
11:57 35.8 °F 24.4 °F 30.46 in West 5.6 mph 8.1 mph 63 % 0.00 in 492.0 W/m2 CLR
12:14 36.4 °F 24.2 °F 30.45 in West 5.7 mph 10.4 mph 61 % 0.00 in 494.0 W/m2 CLR
12:20 36.3 °F 24.9 °F 30.44 in WSW 1.4 mph 3.5 mph 63 % 0.00 in 517.0 W/m2 CLR
12:22 36.7 °F 25.3 °F 30.44 in WSW 5.7 mph 9.2 mph 63 % 0.00 in 513.0 W/m2 CLR
12:32 36.7 °F 24.5 °F 30.44 in WSW 5.0 mph 6.9 mph 61 % 0.00 in 513.0 W/m2 CLR
12:34 36.7 °F 24.5 °F 30.44 in WSW 2.1 mph 3.5 mph 61 % 0.00 in 510.0 W/m2 CLR
12:56 38.2 °F 24.7 °F 30.42 in SW 6.4 mph 9.2 mph 58 % 0.00 in 478.0 W/m2 CLR
13:02 38.2 °F 24.7 °F 30.42 in West 4.0 mph 6.9 mph 58 % 0.00 in 487.0 W/m2 CLR
13:04 38.4 °F 24.5 °F 30.42 in WSW 3.9 mph 8.1 mph 57 % 0.00 in 443.0 W/m2 CLR
13:09 38.6 °F 24.7 °F 30.42 in WSW 5.0 mph 6.9 mph 57 % 0.00 in 487.0 W/m2 CLR
13:10 38.7 °F 24.8 °F 30.42 in West 3.7 mph 6.9 mph 57 % 0.00 in 483.0 W/m2 CLR
13:12 38.8 °F 24.9 °F 30.42 in WSW 4.3 mph 10.0 mph 57 % 0.00 in 482.0 W/m2 CLR
13:16 38.9 °F 24.9 °F 30.42 in WSW 3.0 mph 4.6 mph 57 % 0.00 in 445.0 W/m2 CLR
13:25 39.0 °F 25.0 °F 30.41 in WNW 2.0 mph 7.0 mph 57 % 0.01 in 432.0 W/m2 RA
13:27 39.3 °F 25.7 °F 30.41 in West 3.5 mph 3.5 mph 58 % 0.01 in 445.0 W/m2 CLR
13:28 39.5 °F 25.9 °F 30.41 in SSW 3.9 mph 6.9 mph 58 % 0.01 in 450.0 W/m2 CLR
13:31 39.7 °F 25.7 °F 30.41 in West 6.6 mph 9.2 mph 57 % 0.01 in 431.0 W/m2 CLR
13:38 39.5 °F 25.5 °F 30.41 in WSW 3.5 mph 8.0 mph 57 % 0.01 in 436.0 W/m2 CLR
13:42 39.5 °F 25.1 °F 30.41 in WSW 3.9 mph 9.0 mph 56 % 0.01 in 427.0 W/m2 CLR
13:47 39.4 °F 25.0 °F 30.41 in WSW 2.8 mph 4.6 mph 56 % 0.01 in 250.0 W/m2 FEW
13:49 39.5 °F 25.5 °F 30.41 in West 6.2 mph 8.1 mph 57 % 0.01 in 367.0 W/m2 CLR
13:51 39.5 °F 25.1 °F 30.40 in SW 7.0 mph 10.4 mph 56 % 0.01 in 279.0 W/m2 CLR
13:57 39.1 °F 25.1 °F 30.40 in WSW 1.0 mph 3.5 mph 57 % 0.01 in 178.0 W/m2 SCT
13:58 39.1 °F 25.1 °F 30.40 in SSW 3.7 mph 6.9 mph 57 % 0.01 in 190.0 W/m2 SCT
14:01 38.8 °F 24.9 °F 30.40 in SW 5.3 mph 8.1 mph 57 % 0.01 in 197.0 W/m2 SCT
14:12 38.6 °F 25.5 °F 30.40 in WSW 3.4 mph 6.9 mph 59 % 0.01 in 167.0 W/m2 SCT
14:22 38.5 °F 25.4 °F 30.40 in SW 5.4 mph 8.1 mph 59 % 0.00 in 190.0 W/m2 SCT
14:25 38.7 °F 25.6 °F 30.40 in WSW 3.0 mph 8.0 mph 59 % 0.00 in 190.0 W/m2 SCT
14:31 38.6 °F 25.9 °F 30.40 in WSW 3.6 mph 3.6 mph 60 % 0.00 in 160.0 W/m2 SCT
15:01 38.7 °F 26.0 °F 30.40 in West 3.5 mph 5.8 mph 60 % 0.00 in 121.0 W/m2 SCT
15:09 38.9 °F 26.6 °F 30.40 in West 2.3 mph 4.0 mph 61 % 0.00 in 102.0 W/m2 BKN
15:11 38.9 °F 26.2 °F 30.40 in West 2.9 mph 3.5 mph 60 % 0.00 in 102.0 W/m2 BKN
15:13 38.8 °F 26.5 °F 30.40 in WSW 2.0 mph 3.5 mph 61 % 0.00 in 90.0 W/m2 BKN
15:27 38.7 °F 26.4 °F 30.39 in West 2.5 mph 3.5 mph 61 % 0.00 in 60.0 W/m2 BKN
15:28 38.7 °F 26.4 °F 30.39 in West 1.8 mph 3.5 mph 61 % 0.00 in 60.0 W/m2 BKN
15:31 38.6 °F 26.3 °F 30.39 in Calm     61 % 0.00 in 60.0 W/m2 BKN
15:37 38.7 °F 26.8 °F 30.39 in Calm     62 % 0.00 in 51.0 W/m2 BKN
15:47 38.6 °F 26.7 °F 30.39 in Calm     62 % 0.00 in 56.0 W/m2 BKN
15:51 38.6 °F 26.7 °F 30.39 in Calm     62 % 0.00 in 56.0 W/m2 BKN
15:55 38.6 °F 26.7 °F 30.39 in Calm   1.2 mph 62 % 0.00 in 63.0 W/m2 SCT
16:08 38.7 °F 26.8 °F 30.39 in Calm   1.2 mph 62 % 0.00 in 40.0 W/m2 SCT
16:11 38.6 °F 26.7 °F 30.39 in West 0.5 mph   62 % 0.00 in 35.0 W/m2 BKN
16:20 38.6 °F 27.1 °F 30.39 in West 0.6 mph 1.2 mph 63 % 0.00 in 25.0 W/m2 BKN
16:24 38.5 °F 26.6 °F 30.39 in West 1.0 mph 3.5 mph 62 % 0.00 in 23.0 W/m2 BKN
16:28 38.4 °F 26.9 °F 30.39 in West 0.6 mph 2.3 mph 63 % 0.00 in 16.0 W/m2 BKN
16:29 38.4 °F 26.9 °F 30.39 in Calm     63 % 0.00 in 14.0 W/m2 BKN
16:32 38.3 °F 26.8 °F 30.39 in Calm     63 % 0.00 in 12.0 W/m2 BKN
16:37 38.3 °F 26.8 °F 30.39 in Calm     63 % 0.00 in 9.0 W/m2 BKN
16:38 38.2 °F 26.7 °F 30.39 in Calm     63 % 0.00 in 9.0 W/m2 BKN
16:42 38.2 °F 26.7 °F 30.39 in Calm     63 % 0.00 in 7.0 W/m2 BKN
16:44 38.2 °F 26.7 °F 30.39 in Calm     63 % 0.00 in 5.0 W/m2 BKN
16:54 38.1 °F 26.6 °F 30.39 in West 0.1 mph 1.2 mph 63 % 0.00 in 0.0 W/m2 CLR
16:59 38.1 °F 26.6 °F 30.39 in Calm     63 % 0.00 in 0.0 W/m2 CLR
17:04 38.1 °F 26.6 °F 30.39 in Calm     63 % 0.00 in 0.0 W/m2 CLR
17:09 37.9 °F 26.8 °F 30.39 in Calm     64 % 0.00 in 0.0 W/m2 CLR
17:14 37.9 °F 26.8 °F 30.39 in Calm     64 % 0.00 in 0.0 W/m2 CLR
17:19 37.8 °F 26.7 °F 30.38 in Calm     64 % 0.00 in 0.0 W/m2 CLR
17:24 37.9 °F 27.2 °F 30.39 in Calm     65 % 0.00 in 0.0 W/m2 CLR
17:29 37.8 °F 27.1 °F 30.39 in Calm     65 % 0.00 in 0.0 W/m2 CLR
17:34 37.6 °F 26.9 °F 30.39 in Calm     65 % 0.00 in 0.0 W/m2 CLR
17:39 37.5 °F 27.2 °F 30.38 in Calm     66 % 0.00 in 0.0 W/m2 CLR
17:44 37.5 °F 27.2 °F 30.39 in Calm   1.2 mph 66 % 0.00 in 0.0 W/m2 CLR
17:49 37.5 °F 27.2 °F 30.38 in Calm     66 % 0.00 in 0.0 W/m2 CLR
17:54 37.5 °F 27.2 °F 30.38 in West 0.1 mph 1.2 mph 66 % 0.00 in 0.0 W/m2 CLR
17:59 37.4 °F 27.1 °F 30.38 in Calm   2.3 mph 66 % 0.00 in 0.0 W/m2 CLR
18:04 37.4 °F 27.1 °F 30.38 in West 2.9 mph 6.9 mph 66 % 0.00 in 0.0 W/m2 CLR
18:09 37.3 °F 27.0 °F 30.38 in Calm     66 % 0.00 in 0.0 W/m2 CLR
18:14 37.2 °F 26.9 °F 30.38 in West 0.8 mph 1.2 mph 66 % 0.00 in 0.0 W/m2 CLR
18:19 37.1 °F 27.2 °F 30.38 in Calm   3.5 mph 67 % 0.00 in 0.0 W/m2 CLR
18:24 37.0 °F 27.1 °F 30.38 in West 0.2 mph 2.0 mph 67 % 0.00 in 0.0 W/m2 CLR
18:29 36.8 °F 26.9 °F 30.38 in West 0.7 mph 3.0 mph 67 % 0.00 in 0.0 W/m2 CLR
18:34 36.8 °F 26.9 °F 30.38 in West 0.4 mph 2.3 mph 67 % 0.00 in 0.0 W/m2 CLR
18:39 36.7 °F 27.1 °F 30.38 in West 1.0 mph 3.0 mph 68 % 0.00 in 0.0 W/m2 CLR
18:44 36.6 °F 27.0 °F 30.37 in Calm     68 % 0.00 in 0.0 W/m2 CLR
18:49 36.6 °F 27.0 °F 30.37 in Calm     68 % 0.00 in 0.0 W/m2 CLR
18:54 36.5 °F 26.9 °F 30.37 in West 0.2 mph   68 % 0.00 in 0.0 W/m2 CLR
18:59 36.5 °F 26.9 °F 30.37 in Calm     68 % 0.00 in 0.0 W/m2 CLR
19:04 36.4 °F 26.8 °F 30.37 in Calm     68 % 0.00 in 0.0 W/m2 CLR
19:09 36.4 °F 26.8 °F 30.36 in West 0.2 mph   68 % 0.00 in 0.0 W/m2 CLR
19:14 36.3 °F 26.7 °F 30.36 in Calm     68 % 0.00 in 0.0 W/m2 CLR
19:19 36.2 °F 27.0 °F 30.36 in Calm   2.3 mph 69 % 0.00 in 0.0 W/m2 CLR
19:24 36.2 °F 27.0 °F 30.36 in Calm     69 % 0.00 in 0.0 W/m2 CLR
19:29 36.1 °F 27.3 °F 30.37 in West 0.4 mph 1.0 mph 70 % 0.00 in 0.0 W/m2 CLR
19:34 36.1 °F 27.3 °F 30.37 in Calm     70 % 0.00 in 0.0 W/m2 CLR
19:39 36.1 °F 27.3 °F 30.37 in West 1.0 mph   70 % 0.00 in 0.0 W/m2 CLR
19:44 36.1 °F 27.3 °F 30.37 in West 0.9 mph 5.8 mph 70 % 0.00 in 0.0 W/m2 CLR
19:49 36.2 °F 27.4 °F 30.38 in West 2.6 mph 4.0 mph 70 % 0.00 in 0.0 W/m2 CLR
19:54 36.1 °F 27.3 °F 30.37 in Calm   2.3 mph 70 % 0.00 in 0.0 W/m2 CLR
19:59 36.0 °F 27.2 °F 30.37 in Calm   1.2 mph 70 % 0.00 in 0.0 W/m2 CLR
20:05 35.9 °F 27.1 °F 30.37 in Calm   2.3 mph 70 % 0.00 in 0.0 W/m2 CLR
20:10 35.9 °F 27.4 °F 30.37 in West 0.2 mph   71 % 0.00 in 0.0 W/m2 CLR
20:15 35.8 °F 27.3 °F 30.37 in Calm     71 % 0.00 in 0.0 W/m2 CLR
20:20 35.8 °F 27.3 °F 30.37 in Calm     71 % 0.00 in 0.0 W/m2 CLR
20:25 35.8 °F 27.0 °F 30.37 in Calm   2.3 mph 70 % 0.00 in 0.0 W/m2 CLR
20:30 35.9 °F 27.1 °F 30.37 in West 0.6 mph 3.0 mph 70 % 0.00 in 0.0 W/m2 CLR
20:35 35.9 °F 27.1 °F 30.37 in Calm     70 % 0.00 in 0.0 W/m2 CLR
20:40 35.8 °F 27.0 °F 30.37 in Calm     70 % 0.00 in 0.0 W/m2 CLR
20:45 35.8 °F 27.0 °F 30.36 in Calm     70 % 0.00 in 0.0 W/m2 CLR
20:50 35.8 °F 27.0 °F 30.36 in Calm     70 % 0.00 in 0.0 W/m2 CLR
20:55 35.8 °F 26.6 °F 30.36 in Calm     69 % 0.00 in 0.0 W/m2 CLR
21:00 35.9 °F 27.1 °F 30.36 in Calm     70 % 0.00 in 0.0 W/m2 CLR
21:05 35.8 °F 27.0 °F 30.36 in Calm     70 % 0.00 in 0.0 W/m2 CLR
21:10 35.7 °F 26.9 °F 30.36 in West 1.0 mph 3.0 mph 70 % 0.00 in 0.0 W/m2 CLR
21:15 35.7 °F 26.9 °F 30.36 in Calm     70 % 0.00 in 0.0 W/m2 CLR
21:20 35.8 °F 27.0 °F 30.36 in Calm   1.2 mph 70 % 0.00 in 0.0 W/m2 CLR
21:25 35.8 °F 27.0 °F 30.36 in Calm     70 % 0.00 in 0.0 W/m2 CLR
21:30 35.8 °F 27.0 °F 30.35 in Calm     70 % 0.00 in 0.0 W/m2 CLR
21:35 35.8 °F 26.9 °F 30.35 in Calm     70 % 0.00 in 0.0 W/m2 CLR
21:40 35.7 °F 26.9 °F 30.36 in West 1.0 mph 2.0 mph 70 % 0.00 in 0.0 W/m2 CLR
21:45 35.6 °F 26.8 °F 30.35 in West 0.1 mph 1.2 mph 70 % 0.00 in 0.0 W/m2 CLR
21:50 35.6 °F 27.1 °F 30.36 in WSW 1.2 mph 3.5 mph 71 % 0.00 in 0.0 W/m2 CLR
21:55 35.5 °F 27.0 °F 30.36 in Calm     71 % 0.00 in 0.0 W/m2 CLR
22:00 35.5 °F 27.0 °F 30.35 in WSW 0.9 mph 2.3 mph 71 % 0.00 in 0.0 W/m2 CLR
22:05 35.5 °F 27.0 °F 30.35 in Calm   1.2 mph 71 % 0.00 in 0.0 W/m2 CLR
22:10 35.5 °F 27.0 °F 30.36 in Calm     71 % 0.00 in 0.0 W/m2 CLR
22:15 35.5 °F 27.0 °F 30.36 in Calm     71 % 0.00 in 0.0 W/m2 CLR
22:20 35.5 °F 27.0 °F 30.35 in Calm     71 % 0.00 in 0.0 W/m2 CLR
22:25 35.4 °F 26.9 °F 30.35 in WSW 0.7 mph 2.3 mph 71 % 0.00 in 0.0 W/m2 CLR
22:30 35.4 °F 26.9 °F 30.35 in WSW 0.7 mph 2.3 mph 71 % 0.00 in 0.0 W/m2 CLR
22:35 35.3 °F 26.8 °F 30.35 in Calm   1.2 mph 71 % 0.00 in 0.0 W/m2 CLR
22:40 35.3 °F 26.8 °F 30.35 in WSW 1.3 mph 3.5 mph 71 % 0.00 in 0.0 W/m2 CLR
22:45 35.2 °F 26.7 °F 30.35 in Calm     71 % 0.00 in 0.0 W/m2 CLR
22:50 35.3 °F 26.8 °F 30.34 in WSW 0.7 mph 3.5 mph 71 % 0.00 in 0.0 W/m2 CLR
22:55 35.3 °F 26.8 °F 30.34 in Calm     71 % 0.00 in 0.0 W/m2 CLR
23:00 35.3 °F 26.8 °F 30.34 in SW 1.2 mph 2.3 mph 71 % 0.00 in 0.0 W/m2 CLR
23:05 35.3 °F 27.2 °F 30.34 in Calm     72 % 0.00 in 0.0 W/m2 CLR
23:10 35.2 °F 27.1 °F 30.34 in Calm   1.2 mph 72 % 0.00 in 0.0 W/m2 CLR
23:15 35.2 °F 27.1 °F 30.34 in Calm     72 % 0.00 in 0.0 W/m2 CLR
23:20 35.1 °F 27.0 °F 30.33 in Calm     72 % 0.00 in 0.0 W/m2 CLR
23:25 35.2 °F 27.1 °F 30.33 in Calm     72 % 0.00 in 0.0 W/m2 CLR
23:30 35.3 °F 27.2 °F 30.33 in Calm     72 % 0.00 in 0.0 W/m2 CLR
23:35 35.3 °F 27.2 °F 30.33 in Calm     72 % 0.00 in 0.0 W/m2 CLR
23:40 35.3 °F 27.2 °F 30.33 in Calm     72 % 0.00 in 0.0 W/m2 CLR
23:45 35.3 °F 27.2 °F 30.33 in Calm     72 % 0.00 in 0.0 W/m2 CLR
23:50 35.4 °F 27.3 °F 30.33 in Calm     72 % 0.00 in 0.0 W/m2 CLR
23:55 35.5 °F 27.4 °F 30.33 in Calm     72 % 0.00 in 0.0 W/m2 CLR
Air Products Campus Weather
Compliments of Weather Underground - 3.25 mb